createdAt,value
2023-05-16T00:01:57.814Z,4.25
2023-05-16T00:06:59.153Z,5.97
2023-05-16T00:12:00.538Z,5.47
2023-05-16T00:17:02.026Z,4.15
2023-05-16T00:22:04.287Z,4.60
2023-05-16T00:27:05.780Z,5.63
2023-05-16T00:32:08.745Z,11.23
2023-05-16T00:37:10.276Z,9.95
2023-05-16T00:42:11.719Z,9.38
2023-05-16T00:47:13.125Z,8.20
2023-05-16T00:52:14.574Z,8.80
2023-05-16T00:57:16.306Z,6.43
2023-05-16T01:02:18.011Z,5.80
2023-05-16T01:07:19.475Z,9.07
2023-05-16T01:12:26.271Z,8.60
2023-05-16T01:17:46.566Z,9.68
2023-05-16T01:22:52.788Z,9.27
2023-05-16T01:27:55.027Z,5.00
2023-05-16T01:32:56.683Z,11.68
2023-05-16T01:38:24.681Z,7.72
2023-05-16T01:43:30.786Z,9.27
2023-05-16T01:48:35.350Z,8.63
2023-05-16T01:58:38.602Z,11.18
2023-05-16T02:03:40.016Z,5.47
2023-05-16T02:08:41.418Z,7.47
2023-05-16T02:13:42.884Z,8.23
2023-05-16T02:18:45.878Z,8.35
2023-05-16T02:23:47.272Z,13.27
2023-05-16T02:28:53.702Z,10.23
2023-05-16T02:33:55.038Z,11.90
2023-05-16T02:38:57.415Z,16.30
2023-05-16T02:43:59.097Z,17.23
2023-05-16T02:49:00.620Z,12.73
2023-05-16T02:54:02.098Z,17.98
2023-05-16T02:59:04.263Z,12.55
2023-05-16T03:04:06.081Z,14.27
2023-05-16T03:09:07.855Z,12.52
2023-05-16T03:14:09.424Z,9.95
2023-05-16T03:19:10.948Z,12.73
2023-05-16T03:24:12.485Z,14.68
2023-05-16T03:29:13.953Z,10.70
2023-05-16T03:34:15.350Z,14.40
2023-05-16T03:39:17.097Z,19.10
2023-05-16T03:44:18.681Z,11.23
2023-05-16T03:49:21.194Z,18.90
2023-05-16T03:54:22.533Z,13.23
2023-05-16T03:59:24.072Z,9.95
2023-05-16T04:04:26.034Z,12.02
2023-05-16T04:09:27.470Z,11.38
2023-05-16T04:14:28.808Z,13.48
2023-05-16T04:19:30.192Z,7.30
2023-05-16T04:24:31.966Z,13.57
2023-05-16T04:29:33.313Z,13.48
2023-05-16T04:34:39.766Z,14.38
2023-05-16T04:39:42.572Z,8.98
2023-05-16T04:44:44.045Z,12.18
2023-05-16T04:49:45.490Z,5.93
2023-05-16T04:54:47.029Z,8.45
2023-05-16T04:59:48.921Z,15.23
2023-05-16T05:04:50.465Z,6.70
2023-05-16T05:09:53.449Z,6.20
2023-05-16T05:14:54.997Z,7.13
2023-05-16T05:19:56.759Z,9.25
2023-05-16T05:24:58.436Z,9.68
2023-05-16T05:29:59.950Z,9.50
2023-05-16T05:35:01.324Z,8.40
2023-05-16T05:40:04.083Z,13.95
2023-05-16T05:45:05.790Z,8.93
2023-05-16T05:50:11.382Z,11.65
2023-05-16T05:55:13.044Z,6.95
2023-05-16T06:00:14.986Z,9.43
2023-05-16T06:05:16.664Z,9.48
2023-05-16T06:10:19.164Z,12.60
2023-05-16T06:15:24.078Z,9.18
2023-05-16T06:20:33.061Z,15.38
2023-05-16T06:25:35.844Z,9.40
2023-05-16T06:30:37.190Z,10.23
2023-05-16T06:35:39.486Z,9.10
2023-05-16T06:40:40.945Z,11.65
2023-05-16T06:45:42.571Z,9.82
2023-05-16T06:50:47.284Z,9.05
2023-05-16T06:55:48.863Z,13.65
2023-05-16T07:00:50.848Z,9.52
2023-05-16T07:05:55.318Z,11.13
2023-05-16T07:10:57.373Z,14.10
2023-05-16T07:15:58.860Z,13.57
2023-05-16T07:21:01.926Z,9.98
2023-05-16T07:26:03.823Z,7.10
2023-05-16T07:31:06.842Z,8.30
2023-05-16T07:36:16.065Z,7.25
2023-05-16T07:41:19.124Z,8.90
2023-05-16T07:46:20.745Z,8.45
2023-05-16T07:51:22.286Z,9.13
2023-05-16T07:56:23.739Z,10.15
2023-05-16T08:01:25.339Z,7.55
2023-05-16T08:06:26.849Z,13.63
2023-05-16T08:11:28.630Z,8.77
2023-05-16T08:16:31.276Z,7.90
2023-05-16T08:21:33.039Z,7.22
2023-05-16T08:26:36.423Z,10.63
2023-05-16T08:31:39.651Z,9.05
2023-05-16T08:36:41.953Z,7.20
2023-05-16T08:41:44.109Z,9.20
2023-05-16T08:46:47.189Z,8.52
2023-05-16T08:51:49.146Z,9.20
2023-05-16T08:56:51.069Z,10.98
2023-05-16T09:01:53.212Z,8.55
2023-05-16T09:06:54.616Z,14.02
2023-05-16T09:11:56.359Z,9.73
2023-05-16T09:17:10.793Z,13.70
2023-05-16T09:22:14.595Z,9.07
2023-05-16T09:27:16.309Z,7.68
2023-05-16T09:32:18.456Z,9.80
2023-05-16T09:37:23.061Z,14.20
2023-05-16T09:42:25.718Z,10.60
2023-05-16T09:47:29.074Z,5.60
2023-05-16T09:52:31.271Z,7.47
2023-05-16T09:57:32.856Z,12.15
2023-05-16T10:02:35.167Z,10.80
2023-05-16T10:07:38.161Z,7.82
2023-05-16T10:12:41.863Z,13.48
2023-05-16T10:17:45.588Z,13.02
2023-05-16T10:22:47.753Z,8.68
2023-05-16T10:27:50.081Z,10.25
2023-05-16T10:32:51.987Z,11.05
2023-05-16T10:37:54.258Z,11.18
2023-05-16T10:43:03.243Z,15.70
2023-05-16T10:48:09.356Z,12.10
2023-05-16T10:53:29.147Z,10.32
2023-05-16T10:58:35.232Z,12.55
2023-05-16T11:03:37.377Z,14.93
2023-05-16T11:08:57.719Z,10.77
2023-05-16T11:14:03.653Z,13.63
2023-05-16T11:19:06.860Z,12.52
2023-05-16T11:24:27.182Z,8.77
2023-05-16T11:29:29.390Z,11.13
2023-05-16T11:34:31.247Z,4.95
2023-05-16T11:39:32.789Z,6.85
2023-05-16T11:44:34.246Z,5.78
2023-05-16T11:49:36.143Z,7.30
2023-05-16T11:54:38.980Z,10.80
2023-05-16T11:59:42.973Z,6.17
2023-05-16T12:04:48.584Z,5.70
2023-05-16T12:09:53.928Z,6.28
2023-05-16T12:14:55.453Z,10.55
2023-05-16T12:19:57.011Z,6.63
2023-05-16T12:25:17.741Z,14.95
2023-05-16T12:30:19.305Z,13.40
2023-05-16T12:35:21.062Z,16.52
2023-05-16T12:40:25.824Z,10.77
2023-05-16T12:45:29.861Z,9.93
2023-05-16T12:50:35.011Z,7.18
2023-05-16T12:55:38.358Z,11.10
2023-05-16T13:00:39.875Z,11.80
2023-05-16T13:05:41.575Z,10.32
2023-05-16T13:10:43.003Z,8.52
2023-05-16T13:15:44.994Z,13.32
2023-05-16T13:20:46.485Z,6.78
2023-05-16T13:25:49.573Z,4.80
2023-05-16T13:30:51.623Z,11.67
2023-05-16T13:35:55.318Z,5.65
2023-05-16T13:40:56.954Z,7.83
2023-05-16T13:45:58.430Z,8.10
2023-05-16T13:51:00.206Z,7.22
2023-05-16T13:56:01.910Z,3.88
2023-05-16T14:01:03.903Z,12.32
2023-05-16T14:06:05.424Z,4.80
2023-05-16T14:11:07.127Z,6.25
2023-05-16T14:16:11.694Z,6.40
2023-05-16T14:21:15.299Z,12.25
2023-05-16T14:26:18.381Z,10.15
2023-05-16T14:31:19.854Z,9.10
2023-05-16T14:36:23.395Z,8.65
2023-05-16T14:41:28.977Z,9.32
2023-05-16T14:46:30.573Z,9.68
2023-05-16T14:51:34.123Z,14.00
2023-05-16T14:56:36.247Z,11.70
2023-05-16T15:01:37.817Z,11.55
2023-05-16T15:06:39.299Z,7.10
2023-05-16T15:11:41.288Z,5.82
2023-05-16T15:16:43.079Z,5.40
2023-05-16T15:21:44.769Z,11.10
2023-05-16T15:26:46.297Z,5.70
2023-05-16T15:31:47.779Z,5.43
2023-05-16T15:36:50.010Z,9.07
2023-05-16T15:42:09.311Z,8.63
2023-05-16T15:47:12.691Z,8.90
2023-05-16T15:52:15.423Z,12.65
2023-05-16T15:57:17.280Z,6.75
2023-05-16T16:02:23.483Z,6.30
2023-05-16T16:07:27.431Z,8.25
2023-05-16T16:12:31.276Z,8.40
2023-05-16T16:17:34.470Z,11.20
2023-05-16T16:22:36.373Z,16.83
2023-05-16T16:27:37.966Z,9.25
2023-05-16T16:32:39.481Z,13.65
2023-05-16T16:37:43.023Z,15.05
2023-05-16T16:42:50.812Z,17.85
2023-05-16T16:47:53.282Z,21.33
2023-05-16T16:52:55.106Z,20.95
2023-05-16T16:57:56.551Z,21.02
2023-05-16T17:02:59.836Z,18.25
2023-05-16T17:13:07.252Z,16.58
2023-05-16T17:18:09.130Z,18.75
2023-05-16T17:23:13.255Z,22.65
2023-05-16T17:28:17.838Z,19.30
2023-05-16T17:33:23.039Z,17.83
2023-05-16T17:38:30.291Z,22.15
2023-05-16T17:43:39.026Z,23.42
2023-05-16T17:48:42.385Z,23.88
2023-05-16T17:53:44.291Z,19.25
2023-05-16T17:58:46.164Z,20.33
2023-05-16T18:03:47.954Z,23.58
2023-05-16T18:08:51.736Z,20.55
2023-05-16T18:18:55.605Z,30.33
2023-05-16T18:23:59.536Z,26.25
2023-05-16T18:29:01.713Z,25.98
2023-05-16T18:34:03.579Z,30.23
2023-05-16T18:39:05.561Z,27.17
2023-05-16T18:44:07.087Z,24.40
2023-05-16T18:49:09.025Z,26.63
2023-05-16T18:54:10.471Z,22.70
2023-05-16T18:59:12.151Z,16.95
2023-05-16T19:04:13.626Z,21.30
2023-05-16T19:09:15.122Z,18.15
2023-05-16T19:14:16.654Z,28.10
2023-05-16T19:19:18.248Z,30.65
2023-05-16T19:24:19.822Z,25.50
2023-05-16T19:29:22.249Z,26.75
2023-05-16T19:34:26.474Z,30.95
2023-05-16T19:39:28.484Z,22.65
2023-05-16T19:44:29.910Z,22.27
2023-05-16T19:49:31.988Z,20.88
2023-05-16T19:54:33.529Z,21.90
2023-05-16T19:59:34.957Z,26.55
2023-05-16T20:04:36.386Z,25.50
2023-05-16T20:09:37.901Z,19.70
2023-05-16T20:14:39.557Z,25.08
2023-05-16T20:19:44.350Z,22.95
2023-05-16T20:24:45.910Z,28.52
2023-05-16T20:29:49.408Z,23.98
2023-05-16T20:34:50.793Z,24.23
2023-05-16T20:39:55.636Z,18.70
2023-05-16T20:44:57.072Z,23.38
2023-05-16T20:49:58.709Z,20.70
2023-05-16T20:55:01.269Z,31.02
2023-05-16T21:00:02.909Z,20.77
2023-05-16T21:05:23.109Z,18.58
2023-05-16T21:10:26.643Z,20.55
2023-05-16T21:15:28.568Z,20.17
2023-05-16T21:20:30.667Z,18.13
2023-05-16T21:25:32.113Z,23.08
2023-05-16T21:30:33.498Z,27.52
2023-05-16T21:35:35.031Z,17.38
2023-05-16T21:40:36.436Z,19.35
2023-05-16T21:45:38.112Z,14.60
2023-05-16T21:50:39.553Z,24.30
2023-05-16T21:55:40.962Z,21.05
2023-05-16T22:00:42.598Z,21.23
2023-05-16T22:05:44.175Z,24.63
2023-05-16T22:10:45.578Z,24.65
2023-05-16T22:15:59.486Z,14.45
2023-05-16T22:21:06.221Z,21.37
2023-05-16T22:26:07.648Z,15.43
2023-05-16T22:31:09.012Z,19.67
2023-05-16T22:36:10.532Z,22.47
2023-05-16T22:41:11.966Z,19.63
2023-05-16T22:46:13.649Z,19.70
2023-05-16T22:51:15.033Z,24.70
2023-05-16T22:56:16.447Z,17.10
2023-05-16T23:01:18.419Z,17.17
2023-05-16T23:06:20.249Z,12.87
2023-05-16T23:11:22.464Z,13.63
2023-05-16T23:16:23.852Z,19.13
2023-05-16T23:21:25.340Z,16.53
2023-05-16T23:26:26.789Z,15.10
2023-05-16T23:31:28.255Z,23.27
2023-05-16T23:36:29.620Z,13.33
2023-05-16T23:41:31.109Z,16.43
2023-05-16T23:46:32.531Z,15.33
2023-05-16T23:51:52.308Z,15.63
2023-05-16T23:56:55.442Z,12.03
